createdAt,value
2023-10-09T00:00:01.203Z,73.11
2023-10-09T00:00:12.191Z,73.11
2023-10-09T00:00:21.252Z,73.11
2023-10-09T00:00:41.206Z,73.11
2023-10-09T00:00:51.248Z,73.11
2023-10-09T00:01:01.216Z,73.11
2023-10-09T00:01:11.202Z,73.11
2023-10-09T00:01:21.246Z,73.11
2023-10-09T00:01:31.268Z,73.11
2023-10-09T00:01:51.260Z,73.11
2023-10-09T00:02:01.263Z,73.11
2023-10-09T00:02:11.557Z,73.11
2023-10-09T00:02:21.186Z,73.11
2023-10-09T00:02:31.267Z,73.11
2023-10-09T00:02:41.221Z,73.11
2023-10-09T00:02:52.241Z,73.11
2023-10-09T00:03:01.309Z,73.11
2023-10-09T00:03:21.340Z,73.11
2023-10-09T00:03:31.309Z,73.11
2023-10-09T00:03:41.366Z,73.11
2023-10-09T00:03:51.289Z,73.11
2023-10-09T00:04:01.352Z,73.11
2023-10-09T00:04:11.368Z,73.11
2023-10-09T00:04:31.252Z,73.11
2023-10-09T00:04:41.265Z,73.11
2023-10-09T00:04:51.198Z,73.11
2023-10-09T00:05:01.229Z,73.11
2023-10-09T00:05:11.217Z,73.11
2023-10-09T00:05:21.192Z,73.11
2023-10-09T00:05:31.222Z,73.11
2023-10-09T00:05:42.133Z,73.11
2023-10-09T00:05:51.254Z,73.11
2023-10-09T00:06:11.315Z,73.11
2023-10-09T00:06:21.294Z,73.11
2023-10-09T00:06:31.265Z,73.11
2023-10-09T00:06:41.339Z,73.11
2023-10-09T00:06:51.288Z,73.11
2023-10-09T00:07:01.313Z,73.11
2023-10-09T00:07:11.459Z,73.11
2023-10-09T00:07:22.160Z,73.21
2023-10-09T00:07:31.232Z,73.21
2023-10-09T00:07:41.239Z,73.21
2023-10-09T00:07:52.164Z,73.21
2023-10-09T00:08:11.205Z,73.11
2023-10-09T00:08:21.219Z,73.21
2023-10-09T00:08:31.256Z,73.21
2023-10-09T00:08:41.236Z,73.21
2023-10-09T00:08:51.306Z,73.21
2023-10-09T00:09:01.280Z,73.21
2023-10-09T00:09:11.252Z,73.11
2023-10-09T00:09:21.234Z,73.21
2023-10-09T00:09:41.247Z,73.21
2023-10-09T00:09:51.239Z,73.21
2023-10-09T00:10:01.223Z,73.21
2023-10-09T00:10:11.248Z,73.21
2023-10-09T00:10:21.276Z,73.21
2023-10-09T00:10:31.246Z,73.21
2023-10-09T00:10:52.179Z,73.21
2023-10-09T00:11:01.241Z,73.21
2023-10-09T00:11:11.245Z,73.21
2023-10-09T00:11:21.249Z,73.21
2023-10-09T00:11:31.269Z,73.11
2023-10-09T00:11:41.254Z,73.11
2023-10-09T00:12:01.338Z,73.11
2023-10-09T00:12:11.423Z,73.21
2023-10-09T00:12:21.274Z,73.11
2023-10-09T00:12:31.271Z,73.11
2023-10-09T00:12:41.255Z,73.11
2023-10-09T00:12:51.258Z,73.11
2023-10-09T00:13:11.252Z,73.21
2023-10-09T00:13:21.264Z,73.21
2023-10-09T00:13:31.316Z,73.21
2023-10-09T00:13:41.279Z,73.21
2023-10-09T00:13:51.264Z,73.11
2023-10-09T00:14:01.285Z,73.11
2023-10-09T00:14:11.414Z,73.11
2023-10-09T00:14:31.263Z,73.21
2023-10-09T00:14:41.232Z,73.21
2023-10-09T00:14:51.267Z,73.11
2023-10-09T00:15:01.344Z,73.21
2023-10-09T00:15:11.291Z,73.21
2023-10-09T00:15:22.183Z,73.21
2023-10-09T00:15:31.292Z,73.11
2023-10-09T00:15:41.265Z,73.11
2023-10-09T00:15:51.264Z,73.11
2023-10-09T00:16:01.322Z,73.11
2023-10-09T00:16:11.246Z,73.11
2023-10-09T00:16:31.275Z,73.11
2023-10-09T00:16:41.293Z,73.11
2023-10-09T00:16:51.291Z,73.11
2023-10-09T00:17:01.253Z,73.11
2023-10-09T00:17:11.259Z,73.11
2023-10-09T00:17:23.133Z,73.21
2023-10-09T00:17:31.270Z,73.11
2023-10-09T00:17:41.320Z,73.21
2023-10-09T00:17:51.324Z,73.11
2023-10-09T00:18:11.332Z,73.11
2023-10-09T00:18:21.371Z,73.11
2023-10-09T00:18:31.496Z,73.11
2023-10-09T00:18:41.363Z,73.21
2023-10-09T00:18:51.299Z,73.11
2023-10-09T00:19:01.279Z,73.11
2023-10-09T00:19:12.210Z,73.11
2023-10-09T00:19:32.206Z,73.21
2023-10-09T00:19:41.252Z,73.11
2023-10-09T00:19:51.282Z,73.11
2023-10-09T00:20:01.530Z,73.21
2023-10-09T00:20:11.295Z,73.11
2023-10-09T00:20:21.289Z,73.11
2023-10-09T00:20:41.263Z,73.11
2023-10-09T00:20:51.325Z,73.21
2023-10-09T00:21:01.334Z,73.21
2023-10-09T00:21:11.314Z,73.21
2023-10-09T00:21:21.510Z,73.11
2023-10-09T00:21:31.310Z,73.21
2023-10-09T00:21:41.293Z,73.21
2023-10-09T00:21:51.295Z,73.31
2023-10-09T00:22:11.299Z,73.21
2023-10-09T00:22:21.296Z,73.21
2023-10-09T00:22:31.346Z,73.21
2023-10-09T00:22:41.265Z,73.21
2023-10-09T00:22:51.291Z,73.21
2023-10-09T00:23:01.307Z,73.21
2023-10-09T00:23:22.143Z,73.21
2023-10-09T00:23:31.269Z,73.21
2023-10-09T00:23:41.298Z,73.21
2023-10-09T00:23:51.329Z,73.21
2023-10-09T00:24:01.301Z,73.21
2023-10-09T00:24:11.366Z,73.21
2023-10-09T00:24:31.317Z,73.21
2023-10-09T00:24:41.283Z,73.21
2023-10-09T00:24:51.322Z,73.21
2023-10-09T00:25:01.283Z,73.21
2023-10-09T00:25:11.284Z,73.21
2023-10-09T00:25:21.314Z,73.21
2023-10-09T00:25:31.307Z,73.21
2023-10-09T00:25:41.290Z,73.21
2023-10-09T00:26:01.338Z,73.21
2023-10-09T00:26:11.318Z,73.21
2023-10-09T00:26:21.290Z,73.21
2023-10-09T00:26:31.320Z,73.21
2023-10-09T00:26:41.286Z,73.11
2023-10-09T00:26:51.358Z,73.21
2023-10-09T00:27:11.390Z,73.21
2023-10-09T00:27:21.345Z,73.21
2023-10-09T00:27:31.340Z,73.21
2023-10-09T00:27:41.296Z,73.21
2023-10-09T00:27:51.331Z,73.31
2023-10-09T00:28:01.328Z,73.31
2023-10-09T00:28:22.184Z,73.31
2023-10-09T00:28:31.295Z,73.21
2023-10-09T00:28:41.319Z,73.21
2023-10-09T00:28:51.345Z,73.21
2023-10-09T00:29:01.324Z,73.21
2023-10-09T00:29:11.330Z,73.21
2023-10-09T00:29:31.312Z,73.21
2023-10-09T00:29:41.328Z,73.21
2023-10-09T00:29:51.385Z,73.21
2023-10-09T00:30:01.322Z,73.21
2023-10-09T00:30:11.366Z,73.21
2023-10-09T00:30:21.414Z,73.21
2023-10-09T00:30:31.611Z,73.31
2023-10-09T00:30:51.324Z,73.31
2023-10-09T00:31:01.374Z,73.21
2023-10-09T00:31:11.394Z,73.21
2023-10-09T00:31:21.328Z,73.21
2023-10-09T00:31:31.454Z,73.21
2023-10-09T00:31:41.314Z,73.21
2023-10-09T00:31:51.385Z,73.21
2023-10-09T00:32:01.382Z,73.21
2023-10-09T00:32:11.340Z,73.21
2023-10-09T00:32:21.325Z,73.21
2023-10-09T00:32:31.371Z,73.21
2023-10-09T00:32:41.379Z,73.21
2023-10-09T00:33:01.554Z,73.21
2023-10-09T00:33:11.460Z,73.21
2023-10-09T00:33:21.389Z,73.21
2023-10-09T00:33:31.471Z,73.21
2023-10-09T00:33:41.389Z,73.21
2023-10-09T00:33:51.406Z,73.31
2023-10-09T00:34:11.523Z,73.31
2023-10-09T00:34:21.353Z,73.31
2023-10-09T00:34:31.331Z,73.35
2023-10-09T00:34:41.355Z,73.31
2023-10-09T00:34:51.327Z,73.21
2023-10-09T00:35:01.362Z,73.24
2023-10-09T00:35:11.360Z,73.21
2023-10-09T00:35:32.168Z,73.21
2023-10-09T00:35:41.357Z,73.21
2023-10-09T00:35:51.387Z,73.21
2023-10-09T00:36:01.385Z,73.21
2023-10-09T00:36:11.463Z,73.21
2023-10-09T00:36:21.417Z,73.24
2023-10-09T00:36:43.219Z,73.21
2023-10-09T00:36:52.380Z,73.21
2023-10-09T00:37:01.335Z,73.24
2023-10-09T00:37:11.333Z,73.21
2023-10-09T00:37:21.369Z,73.24
2023-10-09T00:37:31.361Z,73.31
2023-10-09T00:37:41.341Z,73.31
2023-10-09T00:37:51.368Z,73.31
2023-10-09T00:38:01.376Z,73.41
2023-10-09T00:38:11.372Z,73.41
2023-10-09T00:38:31.372Z,73.41
2023-10-09T00:38:41.387Z,73.41
2023-10-09T00:38:51.475Z,73.35
2023-10-09T00:39:01.408Z,73.35
2023-10-09T00:39:11.386Z,73.35
2023-10-09T00:39:21.428Z,73.35
2023-10-09T00:39:31.424Z,73.31
2023-10-09T00:39:51.377Z,73.31
2023-10-09T00:40:01.403Z,73.35
2023-10-09T00:40:11.348Z,73.35
2023-10-09T00:40:21.395Z,73.31
2023-10-09T00:40:31.385Z,73.35
2023-10-09T00:40:41.360Z,73.31
2023-10-09T00:40:51.381Z,73.35
2023-10-09T00:41:12.170Z,73.31
2023-10-09T00:41:21.369Z,73.44
2023-10-09T00:41:31.432Z,73.55
2023-10-09T00:41:41.385Z,73.61
2023-10-09T00:41:51.371Z,73.71
2023-10-09T00:42:01.387Z,73.61
2023-10-09T00:42:21.404Z,73.65
2023-10-09T00:42:31.491Z,73.75
2023-10-09T00:42:41.413Z,73.71
2023-10-09T00:42:51.394Z,73.81
2023-10-09T00:43:01.364Z,73.85
2023-10-09T00:43:11.396Z,73.95
2023-10-09T00:43:31.407Z,73.91
2023-10-09T00:43:41.407Z,73.81
2023-10-09T00:43:51.406Z,73.85
2023-10-09T00:44:01.393Z,73.85
2023-10-09T00:44:11.609Z,73.75
2023-10-09T00:44:22.168Z,73.65
2023-10-09T00:44:31.371Z,73.61
2023-10-09T00:44:41.423Z,73.65
2023-10-09T00:44:51.473Z,73.71
2023-10-09T00:45:02.227Z,73.71
2023-10-09T00:45:11.644Z,73.61
2023-10-09T00:45:31.424Z,73.51
2023-10-09T00:45:41.420Z,73.51
2023-10-09T00:45:51.443Z,73.51
2023-10-09T00:46:01.470Z,73.51
2023-10-09T00:46:11.440Z,73.41
2023-10-09T00:46:21.452Z,73.41
2023-10-09T00:46:31.434Z,73.51
2023-10-09T00:46:51.396Z,73.55
2023-10-09T00:47:01.414Z,73.51
2023-10-09T00:47:11.386Z,73.51
2023-10-09T00:47:21.413Z,73.55
2023-10-09T00:47:31.450Z,73.51
2023-10-09T00:47:41.457Z,73.55
2023-10-09T00:47:51.500Z,73.55
2023-10-09T00:48:01.466Z,73.51
2023-10-09T00:48:11.561Z,73.41
2023-10-09T00:48:31.534Z,73.44
2023-10-09T00:48:41.738Z,73.41
2023-10-09T00:48:51.468Z,73.41
2023-10-09T00:49:01.416Z,73.44
2023-10-09T00:49:11.438Z,73.41
2023-10-09T00:49:22.173Z,73.41
2023-10-09T00:49:42.170Z,73.44
2023-10-09T00:49:51.404Z,73.41
2023-10-09T00:50:02.177Z,73.41
2023-10-09T00:50:11.439Z,73.41
2023-10-09T00:50:22.191Z,73.41
2023-10-09T00:50:31.425Z,73.41
2023-10-09T00:50:51.494Z,73.41
2023-10-09T00:51:01.574Z,73.41
2023-10-09T00:51:11.436Z,73.41
2023-10-09T00:51:21.464Z,73.55
2023-10-09T00:51:31.458Z,73.65
2023-10-09T00:51:41.441Z,73.61
2023-10-09T00:51:51.462Z,73.65
2023-10-09T00:52:12.172Z,73.61
2023-10-09T00:52:21.454Z,73.65
2023-10-09T00:52:31.441Z,73.55
2023-10-09T00:52:41.442Z,73.55
2023-10-09T00:52:51.427Z,73.55
2023-10-09T00:53:01.450Z,73.44
2023-10-09T00:53:21.460Z,73.55
2023-10-09T00:53:31.419Z,73.61
2023-10-09T00:53:41.431Z,73.55
2023-10-09T00:53:51.689Z,73.55
2023-10-09T00:54:01.446Z,73.51
2023-10-09T00:54:11.535Z,73.51
2023-10-09T00:54:31.491Z,73.51
2023-10-09T00:54:41.494Z,73.55
2023-10-09T00:54:51.450Z,73.55
2023-10-09T00:55:01.480Z,73.55
2023-10-09T00:55:11.456Z,73.51
2023-10-09T00:55:21.454Z,73.51
2023-10-09T00:55:32.174Z,73.65
2023-10-09T00:55:41.456Z,73.75
2023-10-09T00:56:01.472Z,73.65
2023-10-09T00:56:11.467Z,73.65
2023-10-09T00:56:21.464Z,73.51
2023-10-09T00:56:31.467Z,73.65
2023-10-09T00:56:41.473Z,73.75
2023-10-09T00:56:51.580Z,73.75
2023-10-09T00:57:11.483Z,73.85
2023-10-09T00:57:21.524Z,73.85
2023-10-09T00:57:31.499Z,73.95
2023-10-09T00:57:41.472Z,73.85
2023-10-09T00:57:51.449Z,73.75
2023-10-09T00:58:01.452Z,73.75
2023-10-09T00:58:11.498Z,73.75
2023-10-09T00:58:31.434Z,73.51
2023-10-09T00:58:41.538Z,73.55
2023-10-09T00:58:51.485Z,73.55
2023-10-09T00:59:01.459Z,73.51
2023-10-09T00:59:11.475Z,73.55
2023-10-09T00:59:21.502Z,73.55
2023-10-09T00:59:31.453Z,73.55
2023-10-09T00:59:51.463Z,73.65
2023-10-09T01:00:01.535Z,73.85
2023-10-09T01:00:11.513Z,73.71
2023-10-09T01:00:21.530Z,73.75
2023-10-09T01:00:31.488Z,73.65
2023-10-09T01:00:41.524Z,73.55
2023-10-09T01:00:51.482Z,73.55
2023-10-09T01:01:11.490Z,73.55
2023-10-09T01:01:21.496Z,73.65
2023-10-09T01:01:31.508Z,73.71
2023-10-09T01:01:41.517Z,73.75
2023-10-09T01:01:51.560Z,73.81
2023-10-09T01:02:01.639Z,73.75
2023-10-09T01:02:12.146Z,73.71
2023-10-09T01:02:21.474Z,73.85
2023-10-09T01:02:41.532Z,73.81
2023-10-09T01:02:51.628Z,73.75
2023-10-09T01:03:01.621Z,73.75
2023-10-09T01:03:12.311Z,73.61
2023-10-09T01:03:21.625Z,73.65
2023-10-09T01:03:31.619Z,73.65
2023-10-09T01:03:41.809Z,73.75
2023-10-09T01:03:51.619Z,73.75
2023-10-09T01:04:01.701Z,73.85
2023-10-09T01:04:21.967Z,73.85
2023-10-09T01:04:31.548Z,73.85
2023-10-09T01:04:42.301Z,73.95
2023-10-09T01:04:51.578Z,74.05
2023-10-09T01:05:01.518Z,73.95
2023-10-09T01:05:11.507Z,73.91
2023-10-09T01:05:21.543Z,73.95
2023-10-09T01:05:32.221Z,73.95
2023-10-09T01:05:52.260Z,74.01
2023-10-09T01:06:01.551Z,74.05
2023-10-09T01:06:11.549Z,73.95
2023-10-09T01:06:21.605Z,73.85
2023-10-09T01:06:31.556Z,73.75
2023-10-09T01:06:41.569Z,73.75
2023-10-09T01:07:01.481Z,73.95
2023-10-09T01:07:11.482Z,73.95
2023-10-09T01:07:21.514Z,74.05
2023-10-09T01:07:31.484Z,74.11
2023-10-09T01:07:41.530Z,74.05
2023-10-09T01:07:51.511Z,74.15
2023-10-09T01:08:01.517Z,74.15
2023-10-09T01:08:11.517Z,74.05
2023-10-09T01:08:31.559Z,74.25
2023-10-09T01:08:41.537Z,74.15
2023-10-09T01:08:51.504Z,74.05
2023-10-09T01:09:01.552Z,73.95
2023-10-09T01:09:11.537Z,74.05
2023-10-09T01:09:21.620Z,74.15
2023-10-09T01:09:42.186Z,74.25
2023-10-09T01:09:51.550Z,74.15
2023-10-09T01:10:01.576Z,74.05
2023-10-09T01:10:11.518Z,74.05
2023-10-09T01:10:21.529Z,74.05
2023-10-09T01:10:32.186Z,74.05
2023-10-09T01:10:51.529Z,74.25
2023-10-09T01:11:01.506Z,74.35
2023-10-09T01:11:11.542Z,74.35
2023-10-09T01:11:21.527Z,74.25
2023-10-09T01:11:31.506Z,74.25
2023-10-09T01:11:41.525Z,74.25
2023-10-09T01:11:51.539Z,74.15
2023-10-09T01:12:01.578Z,74.05
2023-10-09T01:12:21.573Z,73.85
2023-10-09T01:12:31.607Z,73.85
2023-10-09T01:12:42.212Z,73.85
2023-10-09T01:12:51.570Z,73.85
2023-10-09T01:13:01.610Z,73.85
2023-10-09T01:13:11.574Z,73.85
2023-10-09T01:13:31.546Z,74.05
2023-10-09T01:13:41.529Z,74.05
2023-10-09T01:13:51.629Z,74.05
2023-10-09T01:14:01.540Z,74.05
2023-10-09T01:14:11.603Z,74.05
2023-10-09T01:14:21.566Z,74.05
2023-10-09T01:14:32.187Z,74.05
2023-10-09T01:14:41.532Z,74.05
2023-10-09T01:15:01.604Z,73.85
2023-10-09T01:15:11.549Z,73.85
2023-10-09T01:15:21.592Z,73.85
2023-10-09T01:15:31.533Z,73.85
2023-10-09T01:15:42.183Z,73.75
2023-10-09T01:15:51.572Z,73.75
2023-10-09T01:16:01.659Z,73.85
2023-10-09T01:16:11.619Z,73.85
2023-10-09T01:16:31.629Z,73.75
2023-10-09T01:16:41.562Z,73.75
2023-10-09T01:16:51.528Z,73.85
2023-10-09T01:17:01.558Z,73.95
2023-10-09T01:17:11.562Z,73.95
2023-10-09T01:17:21.558Z,73.95
2023-10-09T01:17:31.594Z,73.95
2023-10-09T01:17:51.590Z,73.95
2023-10-09T01:18:01.685Z,73.85
2023-10-09T01:18:11.658Z,73.85
2023-10-09T01:18:21.623Z,73.85
2023-10-09T01:18:31.636Z,73.85
2023-10-09T01:18:41.593Z,73.85
2023-10-09T01:19:01.594Z,73.95
2023-10-09T01:19:11.544Z,73.95
2023-10-09T01:19:22.185Z,74.05
2023-10-09T01:19:31.541Z,74.05
2023-10-09T01:19:41.543Z,74.05
2023-10-09T01:19:51.550Z,73.95
2023-10-09T01:20:11.561Z,73.85
2023-10-09T01:20:21.552Z,73.85
2023-10-09T01:20:31.580Z,73.85
2023-10-09T01:20:41.571Z,73.85
2023-10-09T01:20:51.582Z,73.85
2023-10-09T01:21:01.594Z,73.95
2023-10-09T01:21:21.650Z,73.95
2023-10-09T01:21:31.629Z,74.05
2023-10-09T01:21:41.607Z,74.05
2023-10-09T01:21:51.585Z,73.95
2023-10-09T01:22:01.560Z,73.95
2023-10-09T01:22:11.587Z,73.95
2023-10-09T01:22:31.574Z,73.85
2023-10-09T01:22:41.615Z,73.85
2023-10-09T01:22:52.187Z,73.85
2023-10-09T01:23:01.565Z,73.85
2023-10-09T01:23:11.556Z,73.85
2023-10-09T01:23:21.562Z,73.85
2023-10-09T01:23:41.600Z,73.85
2023-10-09T01:23:51.569Z,73.85
2023-10-09T01:24:01.617Z,73.85
2023-10-09T01:24:11.730Z,73.85
2023-10-09T01:24:21.612Z,73.75
2023-10-09T01:24:31.649Z,73.75
2023-10-09T01:24:41.675Z,73.75
2023-10-09T01:24:51.601Z,73.75
2023-10-09T01:25:11.586Z,73.75
2023-10-09T01:25:21.584Z,73.75
2023-10-09T01:25:31.588Z,73.75
2023-10-09T01:25:41.576Z,73.75
2023-10-09T01:25:51.605Z,73.75
2023-10-09T01:26:01.615Z,73.75
2023-10-09T01:26:11.609Z,73.75
2023-10-09T01:26:21.601Z,73.75
2023-10-09T01:26:41.633Z,73.85
2023-10-09T01:26:51.626Z,73.85
2023-10-09T01:27:01.600Z,73.75
2023-10-09T01:27:11.650Z,73.75
2023-10-09T01:27:21.646Z,73.75
2023-10-09T01:27:31.632Z,73.75
2023-10-09T01:27:51.612Z,73.75
2023-10-09T01:28:01.585Z,73.75
2023-10-09T01:28:12.187Z,73.75
2023-10-09T01:28:21.605Z,73.75
2023-10-09T01:28:31.607Z,73.75
2023-10-09T01:28:42.159Z,73.75
2023-10-09T01:28:51.747Z,73.75
2023-10-09T01:29:01.626Z,73.75
2023-10-09T01:29:21.588Z,73.75
2023-10-09T01:29:31.615Z,73.75
2023-10-09T01:29:41.612Z,73.75
2023-10-09T01:29:51.584Z,73.75
2023-10-09T01:30:01.841Z,73.75
2023-10-09T01:30:11.666Z,73.75
2023-10-09T01:30:31.657Z,73.75
2023-10-09T01:30:41.626Z,73.75
2023-10-09T01:30:51.620Z,73.75
2023-10-09T01:31:01.656Z,73.75
2023-10-09T01:31:12.219Z,73.75
2023-10-09T01:31:21.635Z,73.75
2023-10-09T01:31:31.638Z,73.75
2023-10-09T01:31:51.620Z,73.75
2023-10-09T01:32:01.884Z,73.75
2023-10-09T01:32:11.643Z,73.65
2023-10-09T01:32:21.627Z,73.75
2023-10-09T01:32:31.662Z,73.75
2023-10-09T01:32:41.665Z,73.75
2023-10-09T01:33:01.704Z,73.85
2023-10-09T01:33:11.689Z,73.85
2023-10-09T01:33:21.694Z,73.75
2023-10-09T01:33:31.717Z,73.75
2023-10-09T01:33:41.641Z,73.75
2023-10-09T01:33:51.715Z,73.75
2023-10-09T01:34:11.778Z,73.75
2023-10-09T01:34:21.653Z,73.75
2023-10-09T01:34:31.639Z,73.75
2023-10-09T01:34:41.683Z,73.75
2023-10-09T01:34:52.083Z,73.75
2023-10-09T01:35:01.608Z,73.75
2023-10-09T01:35:11.649Z,73.75
2023-10-09T01:35:31.666Z,73.75
2023-10-09T01:35:41.623Z,73.75
2023-10-09T01:35:51.658Z,73.65
2023-10-09T01:36:01.634Z,73.75
2023-10-09T01:36:11.683Z,73.75
2023-10-09T01:36:21.699Z,73.75
2023-10-09T01:36:41.634Z,73.75
2023-10-09T01:36:51.625Z,73.75
2023-10-09T01:37:01.646Z,73.75
2023-10-09T01:37:11.657Z,73.75
2023-10-09T01:37:21.622Z,73.75
2023-10-09T01:37:31.621Z,73.75
2023-10-09T01:37:41.623Z,73.75
2023-10-09T01:37:51.665Z,73.65
2023-10-09T01:38:11.672Z,73.75
2023-10-09T01:38:21.654Z,73.65
2023-10-09T01:38:31.679Z,73.75
2023-10-09T01:38:41.732Z,73.75
2023-10-09T01:38:51.640Z,73.65
2023-10-09T01:39:02.242Z,73.75
2023-10-09T01:39:21.697Z,73.75
2023-10-09T01:39:31.762Z,73.75
2023-10-09T01:39:41.665Z,73.75
2023-10-09T01:39:51.632Z,73.75
2023-10-09T01:40:01.642Z,73.75
2023-10-09T01:40:11.634Z,73.75
2023-10-09T01:40:31.668Z,73.75
2023-10-09T01:40:41.672Z,73.75
2023-10-09T01:40:51.663Z,73.75
2023-10-09T01:41:01.685Z,73.75
2023-10-09T01:41:11.682Z,73.75
2023-10-09T01:41:21.658Z,73.75
2023-10-09T01:41:41.671Z,73.75
2023-10-09T01:41:51.651Z,73.75
2023-10-09T01:42:01.756Z,73.75
2023-10-09T01:42:11.891Z,73.75
2023-10-09T01:42:21.677Z,73.75
2023-10-09T01:42:31.858Z,73.75
2023-10-09T01:42:51.672Z,73.75
2023-10-09T01:43:01.685Z,73.75
2023-10-09T01:43:11.649Z,73.75
2023-10-09T01:43:21.688Z,73.75
2023-10-09T01:43:31.674Z,73.75
2023-10-09T01:43:41.647Z,73.75
2023-10-09T01:44:01.762Z,73.75
2023-10-09T01:44:11.788Z,73.75
2023-10-09T01:44:21.725Z,73.75
2023-10-09T01:44:31.678Z,73.75
2023-10-09T01:44:41.697Z,73.65
2023-10-09T01:44:52.203Z,73.65
2023-10-09T01:45:11.942Z,73.65
2023-10-09T01:45:21.721Z,73.65
2023-10-09T01:45:31.760Z,73.65
2023-10-09T01:45:41.767Z,73.75
2023-10-09T01:45:51.704Z,73.75
2023-10-09T01:46:01.708Z,73.75
2023-10-09T01:46:21.708Z,73.85
2023-10-09T01:46:31.664Z,73.95
2023-10-09T01:46:41.694Z,74.05
2023-10-09T01:46:51.695Z,73.95
2023-10-09T01:47:01.682Z,73.95
2023-10-09T01:47:12.195Z,73.95
2023-10-09T01:47:21.669Z,73.95
2023-10-09T01:47:31.690Z,73.85
2023-10-09T01:47:52.234Z,73.85
2023-10-09T01:48:01.715Z,73.75
2023-10-09T01:48:12.312Z,73.75
2023-10-09T01:48:21.821Z,73.75
2023-10-09T01:48:31.723Z,73.75
2023-10-09T01:48:41.712Z,73.85
2023-10-09T01:49:01.693Z,74.05
2023-10-09T01:49:11.691Z,74.15
2023-10-09T01:49:21.704Z,74.15
2023-10-09T01:49:31.705Z,74.05
2023-10-09T01:49:41.676Z,74.05
2023-10-09T01:49:51.708Z,74.05
2023-10-09T01:50:12.817Z,74.05
2023-10-09T01:50:21.757Z,74.05
2023-10-09T01:50:31.705Z,73.95
2023-10-09T01:50:41.676Z,74.05
2023-10-09T01:50:51.702Z,74.05
2023-10-09T01:51:01.716Z,73.95
2023-10-09T01:51:21.767Z,74.15
2023-10-09T01:51:31.753Z,74.15
2023-10-09T01:51:41.713Z,74.25
2023-10-09T01:51:51.721Z,74.35
2023-10-09T01:52:01.705Z,74.35
2023-10-09T01:52:11.685Z,74.35
2023-10-09T01:52:21.744Z,74.25
2023-10-09T01:52:42.702Z,74.05
2023-10-09T01:52:51.694Z,74.05
2023-10-09T01:53:01.733Z,74.15
2023-10-09T01:53:11.702Z,74.15
2023-10-09T01:53:21.739Z,74.15
2023-10-09T01:53:31.732Z,74.25
2023-10-09T01:53:52.697Z,74.25
2023-10-09T01:54:01.710Z,74.25
2023-10-09T01:54:11.866Z,74.15
2023-10-09T01:54:21.746Z,74.05
2023-10-09T01:54:31.753Z,73.95
2023-10-09T01:54:41.755Z,73.95
2023-10-09T01:55:01.729Z,73.95
2023-10-09T01:55:11.747Z,73.85
2023-10-09T01:55:21.697Z,73.85
2023-10-09T01:55:31.707Z,73.85
2023-10-09T01:55:41.818Z,73.85
2023-10-09T01:55:51.705Z,73.95
2023-10-09T01:56:11.737Z,73.95
2023-10-09T01:56:21.734Z,73.95
2023-10-09T01:56:31.705Z,74.05
2023-10-09T01:56:41.743Z,74.05
2023-10-09T01:56:51.741Z,74.05
2023-10-09T01:57:01.719Z,74.05
2023-10-09T01:57:11.775Z,73.95
2023-10-09T01:57:31.735Z,74.15
2023-10-09T01:57:41.716Z,74.05
2023-10-09T01:57:51.724Z,73.95
2023-10-09T01:58:01.747Z,73.95
2023-10-09T01:58:12.671Z,73.95
2023-10-09T01:58:21.752Z,73.95
2023-10-09T01:58:31.712Z,73.95
2023-10-09T01:58:41.751Z,73.85
2023-10-09T01:58:51.760Z,73.85
2023-10-09T01:59:11.772Z,73.85
2023-10-09T01:59:21.750Z,73.85
2023-10-09T01:59:31.752Z,73.85
2023-10-09T01:59:41.724Z,73.85
2023-10-09T01:59:52.698Z,73.85
2023-10-09T02:00:01.802Z,73.85
2023-10-09T02:00:21.784Z,73.85
2023-10-09T02:00:31.845Z,73.85
2023-10-09T02:00:41.761Z,73.85
2023-10-09T02:00:51.746Z,73.85
2023-10-09T02:01:02.799Z,73.85
2023-10-09T02:01:11.849Z,73.85
2023-10-09T02:01:21.804Z,73.85
2023-10-09T02:01:41.763Z,73.95
2023-10-09T02:01:51.774Z,74.05
2023-10-09T02:02:01.776Z,74.05
2023-10-09T02:02:11.796Z,74.05
2023-10-09T02:02:21.792Z,74.15
2023-10-09T02:02:31.867Z,74.05
2023-10-09T02:02:41.868Z,73.95
2023-10-09T02:02:51.858Z,73.85
2023-10-09T02:03:11.903Z,73.85
2023-10-09T02:03:21.893Z,73.85
2023-10-09T02:03:31.867Z,73.85
2023-10-09T02:03:41.953Z,73.85
2023-10-09T02:03:51.874Z,73.85
2023-10-09T02:04:01.847Z,73.85
2023-10-09T02:04:21.833Z,73.95
2023-10-09T02:04:31.818Z,73.95
2023-10-09T02:04:41.763Z,73.95
2023-10-09T02:04:51.774Z,74.05
2023-10-09T02:05:01.751Z,74.05
2023-10-09T02:05:12.704Z,74.05
2023-10-09T02:05:31.760Z,73.95
2023-10-09T02:05:41.764Z,73.95
2023-10-09T02:05:51.780Z,73.95
2023-10-09T02:06:01.959Z,73.95
2023-10-09T02:06:11.869Z,73.85
2023-10-09T02:06:21.777Z,73.85
2023-10-09T02:06:31.819Z,73.85
2023-10-09T02:06:41.833Z,73.85
2023-10-09T02:06:51.793Z,73.85
2023-10-09T02:07:11.761Z,73.85
2023-10-09T02:07:21.759Z,73.85
2023-10-09T02:07:31.771Z,73.85
2023-10-09T02:07:42.157Z,73.85
2023-10-09T02:07:51.768Z,73.85
2023-10-09T02:08:01.768Z,73.85
2023-10-09T02:08:11.768Z,73.85
2023-10-09T02:08:21.768Z,73.85
2023-10-09T02:08:31.802Z,73.95
2023-10-09T02:08:41.807Z,73.95
2023-10-09T02:08:51.808Z,73.95
2023-10-09T02:09:01.838Z,73.85
2023-10-09T02:09:11.790Z,73.95
2023-10-09T02:09:21.876Z,73.85
2023-10-09T02:09:41.836Z,73.85
2023-10-09T02:09:51.781Z,73.85
2023-10-09T02:10:01.812Z,73.85
2023-10-09T02:10:11.774Z,73.85
2023-10-09T02:10:21.802Z,73.85
2023-10-09T02:10:31.779Z,73.85
2023-10-09T02:10:51.806Z,73.85
2023-10-09T02:11:01.805Z,73.85
2023-10-09T02:11:11.800Z,73.85
2023-10-09T02:11:21.821Z,73.85
2023-10-09T02:11:31.803Z,73.85
2023-10-09T02:11:42.722Z,73.85
2023-10-09T02:11:51.809Z,73.85
2023-10-09T02:12:12.739Z,73.85
2023-10-09T02:12:21.871Z,73.85
2023-10-09T02:12:31.870Z,73.85
2023-10-09T02:12:41.816Z,73.85
2023-10-09T02:12:51.784Z,73.85
2023-10-09T02:13:01.790Z,73.85
2023-10-09T02:13:22.698Z,73.95
2023-10-09T02:13:31.818Z,73.95
2023-10-09T02:13:42.701Z,73.85
2023-10-09T02:13:51.789Z,73.85
2023-10-09T02:14:01.850Z,73.85
2023-10-09T02:14:11.953Z,73.85
2023-10-09T02:14:32.680Z,73.85
2023-10-09T02:14:41.831Z,73.85
2023-10-09T02:14:52.676Z,73.85
2023-10-09T02:15:01.852Z,73.85
2023-10-09T02:15:11.851Z,73.85
2023-10-09T02:15:21.841Z,73.85
2023-10-09T02:15:41.842Z,73.85
2023-10-09T02:15:51.826Z,73.85
2023-10-09T02:16:01.870Z,73.85
2023-10-09T02:16:11.836Z,73.85
2023-10-09T02:16:21.876Z,73.85
2023-10-09T02:16:31.864Z,73.85
2023-10-09T02:16:51.857Z,73.85
2023-10-09T02:17:01.808Z,73.85
2023-10-09T02:17:11.806Z,73.85
2023-10-09T02:17:21.814Z,73.85
2023-10-09T02:17:31.845Z,73.85
2023-10-09T02:17:41.855Z,73.85
2023-10-09T02:18:01.969Z,73.85
2023-10-09T02:18:11.912Z,74.05
2023-10-09T02:18:21.847Z,74.05
2023-10-09T02:18:31.838Z,74.05
2023-10-09T02:18:42.717Z,73.95
2023-10-09T02:18:51.836Z,73.95
2023-10-09T02:19:02.702Z,73.85
2023-10-09T02:19:11.864Z,73.85
2023-10-09T02:19:22.707Z,73.85
2023-10-09T02:19:31.855Z,73.85
2023-10-09T02:19:51.808Z,73.85
2023-10-09T02:20:01.914Z,73.85
2023-10-09T02:20:11.842Z,73.85
2023-10-09T02:20:21.820Z,73.85
2023-10-09T02:20:31.846Z,73.85
2023-10-09T02:20:41.842Z,73.85
2023-10-09T02:20:52.715Z,73.95
2023-10-09T02:21:02.817Z,73.95
2023-10-09T02:21:21.868Z,73.85
2023-10-09T02:21:31.873Z,73.85
2023-10-09T02:21:41.975Z,73.85
2023-10-09T02:21:51.823Z,73.85
2023-10-09T02:22:01.812Z,73.85
2023-10-09T02:22:11.817Z,73.85
2023-10-09T02:22:21.835Z,73.85
2023-10-09T02:22:31.881Z,73.85
2023-10-09T02:22:51.855Z,73.85
2023-10-09T02:23:01.842Z,73.95
2023-10-09T02:23:11.826Z,73.85
2023-10-09T02:23:21.851Z,74.05
2023-10-09T02:23:31.872Z,73.95
2023-10-09T02:23:41.845Z,73.95
2023-10-09T02:24:01.892Z,73.85
2023-10-09T02:24:11.969Z,73.85
2023-10-09T02:24:21.896Z,73.85
2023-10-09T02:24:31.853Z,73.85
2023-10-09T02:24:41.870Z,73.85
2023-10-09T02:24:51.857Z,73.85
2023-10-09T02:25:01.880Z,73.85
2023-10-09T02:25:21.837Z,73.85
2023-10-09T02:25:31.859Z,73.85
2023-10-09T02:25:41.855Z,73.85
2023-10-09T02:25:51.862Z,73.85
2023-10-09T02:26:01.866Z,73.85
2023-10-09T02:26:11.886Z,73.85
2023-10-09T02:26:21.857Z,73.95
2023-10-09T02:26:41.849Z,74.05
2023-10-09T02:26:51.833Z,74.15
2023-10-09T02:27:01.904Z,74.05